Arlington, IL (61312)

7:00 AM CST on February 11, 2016 (GMT -0600)
KILLAMOI3 | | Change Station
CLOSE
Current Station
Personal Weather Station
Location: La Moille, IL
Elevation: 0 ft
Nearby Weather Stations

Elev 0 ft 41.48 °N, 89.22 °W | Updated 6 minutes ago

Clear
Clear
6.9 °F
Feels Like 7 °F
N
2.0
Wind Variable Wind from North
Gusts 3.0 mph

Today
High -- | Low -- °F
--% Chance of Precip.
Yesterday
High -- | Low -- °F
Precip. -- in
Pressure 30.31 in
Visibility 10.0 miles
Clouds Clear
Windchill 7 °F
Dew Point -1 °F
Humidity 70%
Rainfall 0.00 in
Snow Depth Not available.
6:57 AM 5:25 PM
Waxing Crescent, 11% visible
METAR KVYS 111235Z AUTO 34004KT 10SM CLR M12/M16 A3031 RMK AO2 T11201163
Pressure 30.31 in
Visibility 10.0 miles
Clouds Clear
Windchill 7 °F
Dew Point -1 °F
Humidity 70%
Rainfall 0.00 in
Snow Depth Not available.
6:57 AM 5:25 PM
Waxing Crescent, 11% visible
METAR KVYS 111235Z AUTO 34004KT 10SM CLR M12/M16 A3031 RMK AO2 T11201163

10-Day Weather Forecast

Almanac

Astronomy

Feb. 11, 2016 Rise Set
Actual Time
Civil Twilight
Nautical Twilight
Astronomical Twilight
Moon
Length of Visible Light
Length of Day
Tomorrow will be .
, % of the Moon is Illuminated

Today's Extremes

State Highs State Lows

Community

WunderPhotos

Upload Photos

1,892,037 photos uploaded!

WunderBlog® & News

Nearby

Air Quality

  Air Quality AQ Index Pollutant
Not available.

Snow Depth

Station Depth Elevation

Earthquake Activity

City Distance Mag. Time & Date
Minimum magnitude displayed is 2.5.

Coastal Water Temperatures

Place Temperature

Stations

Nearby Weather Stations

Station Location Temp. Windchill Dew Point Humidity Wind Precip. Elev Updated Type
                   

Watches & Warnings

There are currently no watches in effect.